sensor_id;sensor_type;location;lat;lon;timestamp;temperature;humidity
262;DHT22;114;48.260;10.988;2023-07-20T00:01:23;20.40;1.00
262;DHT22;114;48.260;10.988;2023-07-20T00:03:49;20.50;1.00
262;DHT22;114;48.260;10.988;2023-07-20T00:06:24;20.40;1.00
262;DHT22;114;48.260;10.988;2023-07-20T00:08:51;20.40;1.00
262;DHT22;114;48.260;10.988;2023-07-20T00:11:17;20.40;1.00
262;DHT22;114;48.260;10.988;2023-07-20T00:13:43;20.40;1.00
262;DHT22;114;48.260;10.988;2023-07-20T00:16:08;20.30;1.00
262;DHT22;114;48.260;10.988;2023-07-20T00:18:34;20.30;1.00
262;DHT22;114;48.260;10.988;2023-07-20T00:21:00;20.30;1.00
262;DHT22;114;48.260;10.988;2023-07-20T00:23:27;20.20;1.00
262;DHT22;114;48.260;10.988;2023-07-20T00:25:53;20.20;1.00
262;DHT22;114;48.260;10.988;2023-07-20T00:28:19;20.20;1.00
262;DHT22;114;48.260;10.988;2023-07-20T00:30:45;20.20;1.00
262;DHT22;114;48.260;10.988;2023-07-20T00:33:11;20.10;1.00
262;DHT22;114;48.260;10.988;2023-07-20T00:35:38;20.10;1.00
262;DHT22;114;48.260;10.988;2023-07-20T00:38:04;20.10;1.00
262;DHT22;114;48.260;10.988;2023-07-20T00:40:37;20.10;1.00
262;DHT22;114;48.260;10.988;2023-07-20T00:43:03;20.10;1.00
262;DHT22;114;48.260;10.988;2023-07-20T00:45:29;20.10;1.00
262;DHT22;114;48.260;10.988;2023-07-20T00:47:55;20.00;1.00
262;DHT22;114;48.260;10.988;2023-07-20T00:50:22;20.00;1.00
262;DHT22;114;48.260;10.988;2023-07-20T00:52:49;20.00;1.00
262;DHT22;114;48.260;10.988;2023-07-20T00:55:15;20.00;1.00
262;DHT22;114;48.260;10.988;2023-07-20T00:57:40;19.90;1.00
262;DHT22;114;48.260;10.988;2023-07-20T01:00:07;19.90;1.00
262;DHT22;114;48.260;10.988;2023-07-20T01:02:33;19.90;1.00
262;DHT22;114;48.260;10.988;2023-07-20T01:04:59;19.80;1.00
262;DHT22;114;48.260;10.988;2023-07-20T01:07:26;19.80;1.00
262;DHT22;114;48.260;10.988;2023-07-20T01:12:47;19.80;1.00
262;DHT22;114;48.260;10.988;2023-07-20T01:15:14;19.70;1.00
262;DHT22;114;48.260;10.988;2023-07-20T01:17:40;19.80;1.00
262;DHT22;114;48.260;10.988;2023-07-20T01:20:07;19.70;1.00
262;DHT22;114;48.260;10.988;2023-07-20T01:25:41;19.70;1.00
262;DHT22;114;48.260;10.988;2023-07-20T01:31:21;19.70;1.00
262;DHT22;114;48.260;10.988;2023-07-20T01:33:48;19.70;1.00
262;DHT22;114;48.260;10.988;2023-07-20T01:36:18;19.70;1.00
262;DHT22;114;48.260;10.988;2023-07-20T01:38:45;19.70;1.00
262;DHT22;114;48.260;10.988;2023-07-20T01:41:11;19.60;1.00
262;DHT22;114;48.260;10.988;2023-07-20T01:43:37;19.60;1.00
262;DHT22;114;48.260;10.988;2023-07-20T01:46:03;19.60;1.00
262;DHT22;114;48.260;10.988;2023-07-20T01:48:29;19.50;1.00
262;DHT22;114;48.260;10.988;2023-07-20T01:50:54;19.50;1.00
262;DHT22;114;48.260;10.988;2023-07-20T01:53:20;19.50;1.00
262;DHT22;114;48.260;10.988;2023-07-20T01:55:46;19.40;1.00
262;DHT22;114;48.260;10.988;2023-07-20T01:58:13;19.40;1.00
262;DHT22;114;48.260;10.988;2023-07-20T02:00:39;19.40;1.00
262;DHT22;114;48.260;10.988;2023-07-20T02:03:05;19.30;1.00
262;DHT22;114;48.260;10.988;2023-07-20T02:05:30;19.30;1.00
262;DHT22;114;48.260;10.988;2023-07-20T02:07:56;19.20;1.00
262;DHT22;114;48.260;10.988;2023-07-20T02:10:22;19.20;1.00
262;DHT22;114;48.260;10.988;2023-07-20T02:12:47;19.10;1.00
262;DHT22;114;48.260;10.988;2023-07-20T02:15:14;19.10;1.00
262;DHT22;114;48.260;10.988;2023-07-20T02:17:42;19.10;1.00
262;DHT22;114;48.260;10.988;2023-07-20T02:20:09;19.10;1.00
262;DHT22;114;48.260;10.988;2023-07-20T02:22:37;19.10;1.00
262;DHT22;114;48.260;10.988;2023-07-20T02:25:07;19.00;1.00
262;DHT22;114;48.260;10.988;2023-07-20T02:27:36;19.00;1.00
262;DHT22;114;48.260;10.988;2023-07-20T02:30:02;18.90;1.00
262;DHT22;114;48.260;10.988;2023-07-20T02:32:29;18.90;1.00
262;DHT22;114;48.260;10.988;2023-07-20T02:34:55;18.80;1.00
262;DHT22;114;48.260;10.988;2023-07-20T02:37:21;18.80;1.00
262;DHT22;114;48.260;10.988;2023-07-20T02:39:47;18.80;1.00
262;DHT22;114;48.260;10.988;2023-07-20T02:42:12;18.80;1.00
262;DHT22;114;48.260;10.988;2023-07-20T02:44:39;18.80;1.00
262;DHT22;114;48.260;10.988;2023-07-20T02:47:04;18.90;1.00
262;DHT22;114;48.260;10.988;2023-07-20T02:49:30;18.80;1.00
262;DHT22;114;48.260;10.988;2023-07-20T02:51:56;18.80;1.00
262;DHT22;114;48.260;10.988;2023-07-20T02:54:22;18.80;1.00
262;DHT22;114;48.260;10.988;2023-07-20T02:56:47;18.80;1.00
262;DHT22;114;48.260;10.988;2023-07-20T02:59:14;18.80;1.00
262;DHT22;114;48.260;10.988;2023-07-20T03:01:40;18.80;1.00
262;DHT22;114;48.260;10.988;2023-07-20T03:04:08;18.70;1.00
262;DHT22;114;48.260;10.988;2023-07-20T03:06:36;18.70;1.00
262;DHT22;114;48.260;10.988;2023-07-20T03:09:02;18.70;1.00
262;DHT22;114;48.260;10.988;2023-07-20T03:11:29;18.70;1.00
262;DHT22;114;48.260;10.988;2023-07-20T03:13:55;18.70;1.00
262;DHT22;114;48.260;10.988;2023-07-20T03:16:23;18.70;1.00
262;DHT22;114;48.260;10.988;2023-07-20T03:18:49;18.70;1.00
262;DHT22;114;48.260;10.988;2023-07-20T03:21:14;18.60;1.00
262;DHT22;114;48.260;10.988;2023-07-20T03:23:40;18.60;1.00
262;DHT22;114;48.260;10.988;2023-07-20T03:26:06;18.60;1.00
262;DHT22;114;48.260;10.988;2023-07-20T03:28:38;18.60;1.00
262;DHT22;114;48.260;10.988;2023-07-20T03:31:04;18.60;1.00
262;DHT22;114;48.260;10.988;2023-07-20T03:33:31;18.60;1.00
262;DHT22;114;48.260;10.988;2023-07-20T03:35:57;18.50;1.00
262;DHT22;114;48.260;10.988;2023-07-20T03:38:24;18.50;1.00
262;DHT22;114;48.260;10.988;2023-07-20T03:40:52;18.50;1.00
262;DHT22;114;48.260;10.988;2023-07-20T03:43:18;18.50;1.00
262;DHT22;114;48.260;10.988;2023-07-20T03:45:44;18.40;1.00
262;DHT22;114;48.260;10.988;2023-07-20T03:48:11;18.50;1.00
262;DHT22;114;48.260;10.988;2023-07-20T03:50:37;18.50;1.00
262;DHT22;114;48.260;10.988;2023-07-20T03:53:03;18.40;1.00
262;DHT22;114;48.260;10.988;2023-07-20T03:55:28;18.40;1.00
262;DHT22;114;48.260;10.988;2023-07-20T03:57:54;18.40;1.00
262;DHT22;114;48.260;10.988;2023-07-20T04:00:20;18.40;1.00
262;DHT22;114;48.260;10.988;2023-07-20T04:02:46;18.40;1.00
262;DHT22;114;48.260;10.988;2023-07-20T04:05:12;18.30;1.00
262;DHT22;114;48.260;10.988;2023-07-20T04:07:37;18.30;1.00
262;DHT22;114;48.260;10.988;2023-07-20T04:10:03;18.20;1.00
262;DHT22;114;48.260;10.988;2023-07-20T04:12:29;18.20;1.00
262;DHT22;114;48.260;10.988;2023-07-20T04:14:55;18.10;1.00
262;DHT22;114;48.260;10.988;2023-07-20T04:17:20;18.10;1.00
262;DHT22;114;48.260;10.988;2023-07-20T04:19:46;18.10;1.00
262;DHT22;114;48.260;10.988;2023-07-20T04:22:12;18.00;1.00
262;DHT22;114;48.260;10.988;2023-07-20T04:24:41;18.10;1.00
262;DHT22;114;48.260;10.988;2023-07-20T04:27:08;18.10;1.00
262;DHT22;114;48.260;10.988;2023-07-20T04:29:34;18.00;1.00
262;DHT22;114;48.260;10.988;2023-07-20T04:32:00;18.00;1.00
262;DHT22;114;48.260;10.988;2023-07-20T04:34:26;18.00;1.00
262;DHT22;114;48.260;10.988;2023-07-20T04:36:51;18.20;1.00
262;DHT22;114;48.260;10.988;2023-07-20T04:39:17;18.30;1.00
262;DHT22;114;48.260;10.988;2023-07-20T04:41:43;18.20;1.00
262;DHT22;114;48.260;10.988;2023-07-20T04:44:08;18.40;1.00
262;DHT22;114;48.260;10.988;2023-07-20T04:46:34;18.30;1.00
262;DHT22;114;48.260;10.988;2023-07-20T04:49:00;18.10;1.00
262;DHT22;114;48.260;10.988;2023-07-20T04:51:27;18.00;1.00
262;DHT22;114;48.260;10.988;2023-07-20T04:53:54;18.00;1.00
262;DHT22;114;48.260;10.988;2023-07-20T04:56:20;17.90;1.00
262;DHT22;114;48.260;10.988;2023-07-20T04:58:48;17.90;1.00
262;DHT22;114;48.260;10.988;2023-07-20T05:01:14;18.50;1.00
262;DHT22;114;48.260;10.988;2023-07-20T05:03:40;18.20;1.00
262;DHT22;114;48.260;10.988;2023-07-20T05:06:05;18.00;1.00
262;DHT22;114;48.260;10.988;2023-07-20T05:08:31;17.80;1.00
262;DHT22;114;48.260;10.988;2023-07-20T05:10:56;17.80;1.00
262;DHT22;114;48.260;10.988;2023-07-20T05:13:23;17.90;1.00
262;DHT22;114;48.260;10.988;2023-07-20T05:15:51;18.00;1.00
262;DHT22;114;48.260;10.988;2023-07-20T05:18:18;18.10;1.00
262;DHT22;114;48.260;10.988;2023-07-20T05:20:50;18.10;1.00
262;DHT22;114;48.260;10.988;2023-07-20T05:23:18;18.10;1.00
262;DHT22;114;48.260;10.988;2023-07-20T05:25:43;18.20;1.00
262;DHT22;114;48.260;10.988;2023-07-20T05:28:09;18.20;1.00
262;DHT22;114;48.260;10.988;2023-07-20T05:30:35;18.10;1.00
262;DHT22;114;48.260;10.988;2023-07-20T05:33:01;18.10;1.00
262;DHT22;114;48.260;10.988;2023-07-20T05:35:26;18.20;1.00
262;DHT22;114;48.260;10.988;2023-07-20T05:37:53;18.10;1.00
262;DHT22;114;48.260;10.988;2023-07-20T05:40:19;18.10;1.00
262;DHT22;114;48.260;10.988;2023-07-20T05:42:46;18.00;1.00
262;DHT22;114;48.260;10.988;2023-07-20T05:45:14;18.00;1.00
262;DHT22;114;48.260;10.988;2023-07-20T05:47:41;18.00;1.00
262;DHT22;114;48.260;10.988;2023-07-20T05:50:07;18.10;1.00
262;DHT22;114;48.260;10.988;2023-07-20T05:52:33;18.10;1.00
262;DHT22;114;48.260;10.988;2023-07-20T05:54:58;18.20;1.00
262;DHT22;114;48.260;10.988;2023-07-20T05:57:24;18.40;1.00
262;DHT22;114;48.260;10.988;2023-07-20T05:59:50;18.40;1.00
262;DHT22;114;48.260;10.988;2023-07-20T06:02:16;18.60;1.00
262;DHT22;114;48.260;10.988;2023-07-20T06:04:42;18.40;1.00
262;DHT22;114;48.260;10.988;2023-07-20T06:07:08;18.50;1.00
262;DHT22;114;48.260;10.988;2023-07-20T06:09:34;18.50;1.00
262;DHT22;114;48.260;10.988;2023-07-20T06:12:00;18.50;1.00
262;DHT22;114;48.260;10.988;2023-07-20T06:14:26;18.60;1.00
262;DHT22;114;48.260;10.988;2023-07-20T06:16:52;18.70;1.00
262;DHT22;114;48.260;10.988;2023-07-20T06:19:17;18.70;1.00
262;DHT22;114;48.260;10.988;2023-07-20T06:21:43;18.80;1.00
262;DHT22;114;48.260;10.988;2023-07-20T06:24:09;18.70;1.00
262;DHT22;114;48.260;10.988;2023-07-20T06:26:35;18.60;1.00
262;DHT22;114;48.260;10.988;2023-07-20T06:29:05;19.00;1.00
262;DHT22;114;48.260;10.988;2023-07-20T06:31:32;19.10;1.00
262;DHT22;114;48.260;10.988;2023-07-20T06:33:58;18.90;1.00
262;DHT22;114;48.260;10.988;2023-07-20T06:36:24;18.90;1.00
262;DHT22;114;48.260;10.988;2023-07-20T06:38:51;18.90;1.00
262;DHT22;114;48.260;10.988;2023-07-20T06:41:17;19.00;1.00
262;DHT22;114;48.260;10.988;2023-07-20T06:43:43;18.90;1.00
262;DHT22;114;48.260;10.988;2023-07-20T06:46:09;18.80;1.00
262;DHT22;114;48.260;10.988;2023-07-20T06:48:34;19.00;1.00
262;DHT22;114;48.260;10.988;2023-07-20T06:51:00;19.30;1.00
262;DHT22;114;48.260;10.988;2023-07-20T06:53:26;19.50;1.00
262;DHT22;114;48.260;10.988;2023-07-20T06:55:52;19.70;1.00
262;DHT22;114;48.260;10.988;2023-07-20T06:58:17;19.50;1.00
262;DHT22;114;48.260;10.988;2023-07-20T07:00:44;19.50;1.00
262;DHT22;114;48.260;10.988;2023-07-20T07:03:10;19.40;1.00
262;DHT22;114;48.260;10.988;2023-07-20T07:05:36;19.60;1.00
262;DHT22;114;48.260;10.988;2023-07-20T07:08:06;19.60;1.00
262;DHT22;114;48.260;10.988;2023-07-20T07:10:35;19.60;1.00
262;DHT22;114;48.260;10.988;2023-07-20T07:13:01;19.50;1.00
262;DHT22;114;48.260;10.988;2023-07-20T07:15:27;19.60;1.00
262;DHT22;114;48.260;10.988;2023-07-20T07:17:53;19.60;1.00
262;DHT22;114;48.260;10.988;2023-07-20T07:20:19;19.70;1.00
262;DHT22;114;48.260;10.988;2023-07-20T07:22:44;19.60;1.00
262;DHT22;114;48.260;10.988;2023-07-20T07:25:10;19.80;1.00
262;DHT22;114;48.260;10.988;2023-07-20T07:27:36;20.00;1.00
262;DHT22;114;48.260;10.988;2023-07-20T07:30:05;20.20;1.00
262;DHT22;114;48.260;10.988;2023-07-20T07:32:31;20.30;1.00
262;DHT22;114;48.260;10.988;2023-07-20T07:34:57;20.40;1.00
262;DHT22;114;48.260;10.988;2023-07-20T07:37:24;20.50;1.00
262;DHT22;114;48.260;10.988;2023-07-20T07:39:50;20.90;1.00
262;DHT22;114;48.260;10.988;2023-07-20T07:42:15;20.80;1.00
262;DHT22;114;48.260;10.988;2023-07-20T07:44:41;20.60;1.00
262;DHT22;114;48.260;10.988;2023-07-20T07:47:07;20.90;1.00
262;DHT22;114;48.260;10.988;2023-07-20T07:49:32;20.80;1.00
262;DHT22;114;48.260;10.988;2023-07-20T07:51:58;20.70;1.00
262;DHT22;114;48.260;10.988;2023-07-20T07:54:24;20.60;1.00
262;DHT22;114;48.260;10.988;2023-07-20T07:56:50;20.50;1.00
262;DHT22;114;48.260;10.988;2023-07-20T07:59:16;20.50;1.00
262;DHT22;114;48.260;10.988;2023-07-20T08:01:42;20.50;1.00
262;DHT22;114;48.260;10.988;2023-07-20T08:04:08;20.70;1.00
262;DHT22;114;48.260;10.988;2023-07-20T08:06:34;20.50;1.00
262;DHT22;114;48.260;10.988;2023-07-20T08:08:59;20.30;1.00
262;DHT22;114;48.260;10.988;2023-07-20T08:11:25;20.70;1.00
262;DHT22;114;48.260;10.988;2023-07-20T08:13:51;21.00;1.00
262;DHT22;114;48.260;10.988;2023-07-20T08:16:17;21.30;1.00
262;DHT22;114;48.260;10.988;2023-07-20T08:18:43;21.10;1.00
262;DHT22;114;48.260;10.988;2023-07-20T08:21:10;20.90;1.00
262;DHT22;114;48.260;10.988;2023-07-20T08:23:36;21.10;1.00
262;DHT22;114;48.260;10.988;2023-07-20T08:26:02;21.10;1.00
262;DHT22;114;48.260;10.988;2023-07-20T08:28:27;21.30;1.00
262;DHT22;114;48.260;10.988;2023-07-20T08:30:54;21.10;1.00
262;DHT22;114;48.260;10.988;2023-07-20T08:33:20;21.10;1.00
262;DHT22;114;48.260;10.988;2023-07-20T08:35:46;21.40;1.00
262;DHT22;114;48.260;10.988;2023-07-20T08:38:13;21.30;1.00
262;DHT22;114;48.260;10.988;2023-07-20T08:40:43;21.60;1.00
262;DHT22;114;48.260;10.988;2023-07-20T08:43:13;21.30;1.00
262;DHT22;114;48.260;10.988;2023-07-20T08:45:40;21.30;1.00
262;DHT22;114;48.260;10.988;2023-07-20T08:48:07;21.30;1.00
262;DHT22;114;48.260;10.988;2023-07-20T08:50:34;21.20;1.00
262;DHT22;114;48.260;10.988;2023-07-20T08:53:01;21.30;1.00
262;DHT22;114;48.260;10.988;2023-07-20T08:55:27;21.10;1.00
262;DHT22;114;48.260;10.988;2023-07-20T08:57:54;21.40;1.00
262;DHT22;114;48.260;10.988;2023-07-20T09:00:21;21.50;1.00
262;DHT22;114;48.260;10.988;2023-07-20T09:02:50;21.70;1.00
262;DHT22;114;48.260;10.988;2023-07-20T09:05:17;21.90;1.00
262;DHT22;114;48.260;10.988;2023-07-20T09:07:43;21.70;1.00
262;DHT22;114;48.260;10.988;2023-07-20T09:10:10;21.50;1.00
262;DHT22;114;48.260;10.988;2023-07-20T09:12:38;21.30;1.00
262;DHT22;114;48.260;10.988;2023-07-20T09:15:06;21.60;1.00
262;DHT22;114;48.260;10.988;2023-07-20T09:17:32;22.20;1.00
262;DHT22;114;48.260;10.988;2023-07-20T09:19:57;22.60;1.00
262;DHT22;114;48.260;10.988;2023-07-20T09:22:32;22.30;1.00
262;DHT22;114;48.260;10.988;2023-07-20T09:24:58;22.20;1.00
262;DHT22;114;48.260;10.988;2023-07-20T09:27:40;22.10;1.00
262;DHT22;114;48.260;10.988;2023-07-20T09:30:06;22.80;1.00
262;DHT22;114;48.260;10.988;2023-07-20T09:32:42;23.20;1.00
262;DHT22;114;48.260;10.988;2023-07-20T09:35:19;23.40;1.00
262;DHT22;114;48.260;10.988;2023-07-20T09:37:50;23.40;1.00
262;DHT22;114;48.260;10.988;2023-07-20T09:40:18;23.50;1.00
262;DHT22;114;48.260;10.988;2023-07-20T09:42:45;23.10;1.00
262;DHT22;114;48.260;10.988;2023-07-20T09:45:10;23.10;1.00
262;DHT22;114;48.260;10.988;2023-07-20T09:47:37;23.10;1.00
262;DHT22;114;48.260;10.988;2023-07-20T09:50:04;22.70;1.00
262;DHT22;114;48.260;10.988;2023-07-20T09:52:34;22.60;1.00
262;DHT22;114;48.260;10.988;2023-07-20T09:55:00;22.90;1.00
262;DHT22;114;48.260;10.988;2023-07-20T09:57:26;23.40;1.00
262;DHT22;114;48.260;10.988;2023-07-20T09:59:52;23.80;1.00
262;DHT22;114;48.260;10.988;2023-07-20T10:02:25;24.20;1.00
262;DHT22;114;48.260;10.988;2023-07-20T10:04:53;24.30;1.00
262;DHT22;114;48.260;10.988;2023-07-20T10:07:19;23.60;1.00
262;DHT22;114;48.260;10.988;2023-07-20T10:09:48;23.20;1.00
262;DHT22;114;48.260;10.988;2023-07-20T10:12:16;23.10;1.00
262;DHT22;114;48.260;10.988;2023-07-20T10:14:59;23.20;1.00
262;DHT22;114;48.260;10.988;2023-07-20T10:17:28;23.40;1.00
262;DHT22;114;48.260;10.988;2023-07-20T10:19:56;23.10;1.00
262;DHT22;114;48.260;10.988;2023-07-20T10:22:26;23.60;1.00
262;DHT22;114;48.260;10.988;2023-07-20T10:24:54;23.70;1.00
262;DHT22;114;48.260;10.988;2023-07-20T10:27:23;23.30;1.00
262;DHT22;114;48.260;10.988;2023-07-20T10:29:49;23.00;1.00
262;DHT22;114;48.260;10.988;2023-07-20T10:32:16;23.10;1.00
262;DHT22;114;48.260;10.988;2023-07-20T10:34:42;23.10;1.00
262;DHT22;114;48.260;10.988;2023-07-20T10:37:07;23.00;1.00
262;DHT22;114;48.260;10.988;2023-07-20T10:39:34;23.40;1.00
262;DHT22;114;48.260;10.988;2023-07-20T10:42:01;23.50;1.00
262;DHT22;114;48.260;10.988;2023-07-20T10:44:30;23.10;1.00
262;DHT22;114;48.260;10.988;2023-07-20T10:47:00;23.20;1.00
262;DHT22;114;48.260;10.988;2023-07-20T10:49:26;23.80;1.00
262;DHT22;114;48.260;10.988;2023-07-20T10:52:00;24.20;1.00
262;DHT22;114;48.260;10.988;2023-07-20T10:56:57;24.40;1.00
262;DHT22;114;48.260;10.988;2023-07-20T11:01:49;24.20;1.00
262;DHT22;114;48.260;10.988;2023-07-20T11:04:15;25.00;1.00
262;DHT22;114;48.260;10.988;2023-07-20T11:06:55;25.30;1.00
262;DHT22;114;48.260;10.988;2023-07-20T11:09:22;25.50;1.00
262;DHT22;114;48.260;10.988;2023-07-20T11:12:11;25.60;1.00
262;DHT22;114;48.260;10.988;2023-07-20T11:14:55;25.00;1.00
262;DHT22;114;48.260;10.988;2023-07-20T11:17:29;25.40;1.00
262;DHT22;114;48.260;10.988;2023-07-20T11:19:59;25.40;1.00
262;DHT22;114;48.260;10.988;2023-07-20T11:22:27;26.00;1.00
262;DHT22;114;48.260;10.988;2023-07-20T11:24:57;26.40;1.00
262;DHT22;114;48.260;10.988;2023-07-20T11:27:23;26.50;1.00
262;DHT22;114;48.260;10.988;2023-07-20T11:29:49;25.90;1.00
262;DHT22;114;48.260;10.988;2023-07-20T11:32:23;25.70;1.00
262;DHT22;114;48.260;10.988;2023-07-20T11:34:49;25.40;1.00
262;DHT22;114;48.260;10.988;2023-07-20T11:37:15;25.00;1.00
262;DHT22;114;48.260;10.988;2023-07-20T11:39:41;25.90;1.00
262;DHT22;114;48.260;10.988;2023-07-20T11:42:09;25.40;1.00
262;DHT22;114;48.260;10.988;2023-07-20T11:44:34;25.20;1.00
262;DHT22;114;48.260;10.988;2023-07-20T11:47:13;25.50;1.00
262;DHT22;114;48.260;10.988;2023-07-20T11:49:40;26.40;1.00
262;DHT22;114;48.260;10.988;2023-07-20T11:52:14;25.90;1.00
262;DHT22;114;48.260;10.988;2023-07-20T11:54:42;25.70;1.00
262;DHT22;114;48.260;10.988;2023-07-20T11:57:16;26.50;1.00
262;DHT22;114;48.260;10.988;2023-07-20T12:00:02;26.70;1.00
262;DHT22;114;48.260;10.988;2023-07-20T12:02:31;26.90;1.00
262;DHT22;114;48.260;10.988;2023-07-20T12:04:58;26.50;1.00
262;DHT22;114;48.260;10.988;2023-07-20T12:07:27;25.60;1.00
262;DHT22;114;48.260;10.988;2023-07-20T12:10:11;25.50;1.00
262;DHT22;114;48.260;10.988;2023-07-20T12:12:44;26.20;1.00
262;DHT22;114;48.260;10.988;2023-07-20T12:15:26;27.20;1.00
262;DHT22;114;48.260;10.988;2023-07-20T12:17:57;26.70;1.00
262;DHT22;114;48.260;10.988;2023-07-20T12:20:31;26.50;1.00
262;DHT22;114;48.260;10.988;2023-07-20T12:23:04;26.70;1.00
262;DHT22;114;48.260;10.988;2023-07-20T12:25:44;27.00;1.00
262;DHT22;114;48.260;10.988;2023-07-20T12:28:15;27.30;1.00
262;DHT22;114;48.260;10.988;2023-07-20T12:30:42;27.50;1.00
262;DHT22;114;48.260;10.988;2023-07-20T12:33:09;27.70;1.00
262;DHT22;114;48.260;10.988;2023-07-20T12:35:35;27.60;1.00
262;DHT22;114;48.260;10.988;2023-07-20T12:38:01;29.40;1.00
262;DHT22;114;48.260;10.988;2023-07-20T12:40:27;29.50;1.00
262;DHT22;114;48.260;10.988;2023-07-20T12:42:53;29.10;1.00
262;DHT22;114;48.260;10.988;2023-07-20T12:45:19;29.50;1.00
262;DHT22;114;48.260;10.988;2023-07-20T12:47:44;30.10;1.00
262;DHT22;114;48.260;10.988;2023-07-20T12:50:11;31.10;1.00
262;DHT22;114;48.260;10.988;2023-07-20T12:52:38;30.80;1.00
262;DHT22;114;48.260;10.988;2023-07-20T12:55:06;30.20;1.00
262;DHT22;114;48.260;10.988;2023-07-20T12:57:35;31.40;1.00
262;DHT22;114;48.260;10.988;2023-07-20T13:00:03;32.20;1.00
262;DHT22;114;48.260;10.988;2023-07-20T13:02:31;33.50;1.00
262;DHT22;114;48.260;10.988;2023-07-20T13:04:57;34.70;1.00
262;DHT22;114;48.260;10.988;2023-07-20T13:07:33;35.50;1.00
262;DHT22;114;48.260;10.988;2023-07-20T13:09:59;33.90;1.00
262;DHT22;114;48.260;10.988;2023-07-20T13:12:31;33.80;1.00
262;DHT22;114;48.260;10.988;2023-07-20T13:14:57;33.80;1.00
262;DHT22;114;48.260;10.988;2023-07-20T13:17:27;34.00;1.00
262;DHT22;114;48.260;10.988;2023-07-20T13:19:53;35.00;1.00
262;DHT22;114;48.260;10.988;2023-07-20T13:22:19;35.90;1.00
262;DHT22;114;48.260;10.988;2023-07-20T13:24:45;36.30;1.00
262;DHT22;114;48.260;10.988;2023-07-20T13:27:14;34.30;1.00
262;DHT22;114;48.260;10.988;2023-07-20T13:29:40;31.50;1.00
262;DHT22;114;48.260;10.988;2023-07-20T13:32:07;29.80;1.00
262;DHT22;114;48.260;10.988;2023-07-20T13:34:33;28.50;1.00
262;DHT22;114;48.260;10.988;2023-07-20T13:36:59;28.40;1.00
262;DHT22;114;48.260;10.988;2023-07-20T13:39:25;30.90;1.00
262;DHT22;114;48.260;10.988;2023-07-20T13:41:52;33.60;1.00
262;DHT22;114;48.260;10.988;2023-07-20T13:44:19;34.40;1.00
262;DHT22;114;48.260;10.988;2023-07-20T13:46:46;34.00;1.00
262;DHT22;114;48.260;10.988;2023-07-20T13:49:12;32.40;1.00
262;DHT22;114;48.260;10.988;2023-07-20T13:51:41;32.90;1.00
262;DHT22;114;48.260;10.988;2023-07-20T13:54:08;34.70;1.00
262;DHT22;114;48.260;10.988;2023-07-20T13:56:34;34.70;1.00
262;DHT22;114;48.260;10.988;2023-07-20T13:58:59;33.70;1.00
262;DHT22;114;48.260;10.988;2023-07-20T14:01:25;33.90;1.00
262;DHT22;114;48.260;10.988;2023-07-20T14:03:53;33.70;1.00
262;DHT22;114;48.260;10.988;2023-07-20T14:06:19;34.30;1.00
262;DHT22;114;48.260;10.988;2023-07-20T14:08:45;33.70;1.00
262;DHT22;114;48.260;10.988;2023-07-20T14:11:15;35.10;1.00
262;DHT22;114;48.260;10.988;2023-07-20T14:13:41;35.80;1.00
262;DHT22;114;48.260;10.988;2023-07-20T14:16:08;37.00;1.00
262;DHT22;114;48.260;10.988;2023-07-20T14:18:34;38.10;1.00
262;DHT22;114;48.260;10.988;2023-07-20T14:21:00;36.90;1.00
262;DHT22;114;48.260;10.988;2023-07-20T14:23:27;34.10;1.00
262;DHT22;114;48.260;10.988;2023-07-20T14:25:53;33.50;1.00
262;DHT22;114;48.260;10.988;2023-07-20T14:28:19;35.10;1.00
262;DHT22;114;48.260;10.988;2023-07-20T14:30:44;34.20;1.00
262;DHT22;114;48.260;10.988;2023-07-20T14:33:10;33.00;1.00
262;DHT22;114;48.260;10.988;2023-07-20T14:35:36;33.60;1.00
262;DHT22;114;48.260;10.988;2023-07-20T14:38:02;32.40;1.00
262;DHT22;114;48.260;10.988;2023-07-20T14:40:28;31.30;1.00
262;DHT22;114;48.260;10.988;2023-07-20T14:42:58;31.60;1.00
262;DHT22;114;48.260;10.988;2023-07-20T14:45:27;32.90;1.00
262;DHT22;114;48.260;10.988;2023-07-20T14:47:52;34.20;1.00
262;DHT22;114;48.260;10.988;2023-07-20T14:50:19;35.40;1.00
262;DHT22;114;48.260;10.988;2023-07-20T14:52:46;36.00;1.00
262;DHT22;114;48.260;10.988;2023-07-20T14:55:11;37.00;1.00
262;DHT22;114;48.260;10.988;2023-07-20T14:57:38;36.90;1.00
262;DHT22;114;48.260;10.988;2023-07-20T15:00:06;36.30;1.00
262;DHT22;114;48.260;10.988;2023-07-20T15:02:33;36.00;1.00
262;DHT22;114;48.260;10.988;2023-07-20T15:04:59;35.10;1.00
262;DHT22;114;48.260;10.988;2023-07-20T15:07:25;32.10;1.00
262;DHT22;114;48.260;10.988;2023-07-20T15:09:51;30.50;1.00
262;DHT22;114;48.260;10.988;2023-07-20T15:12:17;30.60;1.00
262;DHT22;114;48.260;10.988;2023-07-20T15:14:43;30.80;1.00
262;DHT22;114;48.260;10.988;2023-07-20T15:17:12;30.60;1.00
262;DHT22;114;48.260;10.988;2023-07-20T15:19:38;31.40;1.00
262;DHT22;114;48.260;10.988;2023-07-20T15:22:04;31.70;1.00
262;DHT22;114;48.260;10.988;2023-07-20T15:24:30;33.10;1.00
262;DHT22;114;48.260;10.988;2023-07-20T15:26:56;34.30;1.00
262;DHT22;114;48.260;10.988;2023-07-20T15:29:23;35.40;1.00
262;DHT22;114;48.260;10.988;2023-07-20T15:31:49;35.50;1.00
262;DHT22;114;48.260;10.988;2023-07-20T15:34:15;35.40;1.00
262;DHT22;114;48.260;10.988;2023-07-20T15:36:41;35.90;1.00
262;DHT22;114;48.260;10.988;2023-07-20T15:39:07;37.40;1.00
262;DHT22;114;48.260;10.988;2023-07-20T15:41:33;37.70;1.00
262;DHT22;114;48.260;10.988;2023-07-20T15:43:59;35.00;1.00
262;DHT22;114;48.260;10.988;2023-07-20T15:46:48;31.50;1.00
262;DHT22;114;48.260;10.988;2023-07-20T15:49:14;29.60;1.00
262;DHT22;114;48.260;10.988;2023-07-20T15:51:40;28.50;1.00
262;DHT22;114;48.260;10.988;2023-07-20T15:54:08;27.80;1.00
262;DHT22;114;48.260;10.988;2023-07-20T15:56:37;27.50;1.00
262;DHT22;114;48.260;10.988;2023-07-20T15:59:03;27.20;1.00
262;DHT22;114;48.260;10.988;2023-07-20T16:01:31;28.40;1.00
262;DHT22;114;48.260;10.988;2023-07-20T16:03:57;30.70;1.00
262;DHT22;114;48.260;10.988;2023-07-20T16:06:23;32.60;1.00
262;DHT22;114;48.260;10.988;2023-07-20T16:08:49;33.90;1.00
262;DHT22;114;48.260;10.988;2023-07-20T16:11:17;35.10;1.00
262;DHT22;114;48.260;10.988;2023-07-20T16:13:43;35.80;1.00
262;DHT22;114;48.260;10.988;2023-07-20T16:16:10;35.90;1.00
262;DHT22;114;48.260;10.988;2023-07-20T16:18:37;36.70;1.00
262;DHT22;114;48.260;10.988;2023-07-20T16:21:03;36.60;1.00
262;DHT22;114;48.260;10.988;2023-07-20T16:23:30;33.40;1.00
262;DHT22;114;48.260;10.988;2023-07-20T16:25:56;31.40;1.00
262;DHT22;114;48.260;10.988;2023-07-20T16:28:22;29.80;1.00
262;DHT22;114;48.260;10.988;2023-07-20T16:30:48;28.40;1.00
262;DHT22;114;48.260;10.988;2023-07-20T16:33:13;27.70;1.00
262;DHT22;114;48.260;10.988;2023-07-20T16:35:40;27.50;1.00
262;DHT22;114;48.260;10.988;2023-07-20T16:38:09;27.70;1.00
262;DHT22;114;48.260;10.988;2023-07-20T16:40:36;28.50;1.00
262;DHT22;114;48.260;10.988;2023-07-20T16:43:02;30.20;1.00
262;DHT22;114;48.260;10.988;2023-07-20T16:45:28;31.50;1.00
262;DHT22;114;48.260;10.988;2023-07-20T16:47:54;31.70;1.00